Time;durP1;ratioP1;P1;durP2;ratioP2;P2;SDS_P1;SDS_P2;PMS_P1;PMS_P2;Temp;Humidity;BMP_temperature;BMP_pressure;BME280_temperature;BME280_humidity;BME280_pressure;Samples;Min_cycle;Max_cycle;Signal;HPM_P1;HPM_P2
2021/05/24 00:01:28;;;;;;;;;;;;;;;19.44;68.17;100763.75;5025470;28;1944;-45
2021/05/24 00:03:54;;;;;;;;;;;;;;;19.41;68.26;100755.97;5023176;28;1720;-45
2021/05/24 00:06:20;;;;;;;;;;;;;;;19.41;68.26;100760.50;5021717;28;1475;-45
2021/05/24 00:08:46;;;;;;;;;;;;;;;19.41;68.18;100761.34;5023561;28;1823;-45
2021/05/24 00:11:12;;;;;;;;;;;;;;;19.41;67.99;100764.03;5025948;28;1785;-46
2021/05/24 00:13:44;;;;;;;;;;;;;;;19.41;68.03;100760.50;5026689;28;960;-45
2021/05/24 00:16:12;;;;;;;;;;;;;;;19.43;67.87;100766.56;5025332;28;1779;-45
2021/05/24 00:18:38;;;;;;;;;;;;;;;19.41;67.88;100774.75;5023673;28;1479;-45
2021/05/24 00:21:04;;;;;;;;;;;;;;;19.44;68.09;100781.69;5022856;28;1906;-46
2021/05/24 00:23:30;;;;;;;;;;;;;;;19.45;68.26;100788.72;5025449;28;1555;-46
2021/05/24 00:25:56;;;;;;;;;;;;;;;19.41;68.41;100777.44;5032073;28;1530;-46
2021/05/24 00:28:22;;;;;;;;;;;;;;;19.43;68.81;100783.50;5015501;28;1012;-45
2021/05/24 00:30:49;;;;;;;;;;;;;;;19.45;68.38;100791.41;5019052;28;1713;-45
2021/05/24 00:33:18;;;;;;;;;;;;;;;19.42;68.33;100775.63;5027104;28;1425;-46
2021/05/24 00:35:44;;;;;;;;;;;;;;;19.41;68.56;100780.09;5032059;28;1566;-45
2021/05/24 00:38:10;;;;;;;;;;;;;;;19.41;68.82;100777.44;5031711;28;1406;-45
2021/05/24 00:40:36;;;;;;;;;;;;;;;19.42;68.65;100781.81;5031733;28;1910;-45
2021/05/24 00:43:03;;;;;;;;;;;;;;;19.38;68.73;100775.03;5033191;28;1376;-45
2021/05/24 00:45:29;;;;;;;;;;;;;;;19.39;67.93;100774.03;5029536;28;1808;-45
2021/05/24 00:47:55;;;;;;;;;;;;;;;19.40;68.05;100791.00;5020673;28;1667;-45
2021/05/24 00:50:22;;;;;;;;;;;;;;;19.42;68.13;100784.50;5024312;28;1757;-45
2021/05/24 00:52:48;;;;;;;;;;;;;;;19.39;68.81;100770.50;5023047;28;1717;-45
2021/05/24 00:55:14;;;;;;;;;;;;;;;19.40;68.27;100780.28;5022994;28;1787;-46
2021/05/24 00:57:41;;;;;;;;;;;;;;;19.40;68.46;100780.28;5024478;28;1147;-45
2021/05/24 01:00:09;;;;;;;;;;;;;;;19.42;67.98;100792.53;5017152;28;1759;-45
2021/05/24 01:02:35;;;;;;;;;;;;;;;19.41;68.55;100787.31;5022084;28;1902;-45
2021/05/24 01:05:01;;;;;;;;;;;;;;;19.41;68.92;100790.84;5023563;28;1724;-45
2021/05/24 01:07:28;;;;;;;;;;;;;;;19.42;68.43;100797.91;5022421;28;1805;-46
2021/05/24 01:09:54;;;;;;;;;;;;;;;19.42;68.93;100811.31;5013475;28;1182;-46
2021/05/24 01:12:20;;;;;;;;;;;;;;;19.41;68.11;100811.44;5020435;28;1923;-46
2021/05/24 01:14:46;;;;;;;;;;;;;;;19.41;68.79;100814.97;5031556;28;1820;-45
2021/05/24 01:17:12;;;;;;;;;;;;;;;19.41;68.48;100812.28;5025561;28;1608;-46
2021/05/24 01:19:43;;;;;;;;;;;;;;;19.40;68.08;100812.44;5028319;28;1111;-45
2021/05/24 01:22:15;;;;;;;;;;;;;;;19.42;68.00;100827.41;5028985;28;2109;-45
2021/05/24 01:24:41;;;;;;;;;;;;;;;19.39;68.36;100822.31;5024233;28;1756;-45
2021/05/24 01:27:07;;;;;;;;;;;;;;;19.36;68.33;100816.38;5025741;28;1882;-46
2021/05/24 01:29:33;;;;;;;;;;;;;;;19.39;68.78;100816.09;5035397;28;1544;-46
2021/05/24 01:31:59;;;;;;;;;;;;;;;19.40;68.45;100826.69;5028544;28;1096;-45
2021/05/24 01:34:25;;;;;;;;;;;;;;;19.41;68.04;100831.06;5024111;28;1771;-45
2021/05/24 01:36:51;;;;;;;;;;;;;;;19.38;68.17;100831.34;5025504;28;1782;-46
2021/05/24 01:39:19;;;;;;;;;;;;;;;19.42;68.22;100832.78;5030979;28;1947;-45
2021/05/24 01:41:46;;;;;;;;;;;;;;;19.41;68.22;100846.31;5023413;28;1914;-45
2021/05/24 01:44:12;;;;;;;;;;;;;;;19.38;68.13;100846.59;5034097;28;1081;-46
2021/05/24 01:46:38;;;;;;;;;;;;;;;19.41;68.21;100868.59;5029264;28;1799;-46
2021/05/24 01:49:04;;;;;;;;;;;;;;;19.42;68.02;100874.84;5027376;28;1912;-45
2021/05/24 01:51:30;;;;;;;;;;;;;;;19.42;68.45;100891.78;5026251;28;1604;-46
2021/05/24 01:53:56;;;;;;;;;;;;;;;19.41;68.18;100884.69;5024905;28;1614;-46
2021/05/24 01:56:23;;;;;;;;;;;;;;;19.42;68.90;100901.66;5027156;28;1747;-45
2021/05/24 01:58:49;;;;;;;;;;;;;;;19.41;68.55;100890.06;5030411;28;1086;-45
2021/05/24 02:03:44;;;;;;;;;;;;;;;19.41;68.66;100900.78;5067763;28;1614;-47
2021/05/24 02:06:10;;;;;;;;;;;;;;;19.39;68.48;100891.19;5065011;28;1419;-47
2021/05/24 02:08:36;;;;;;;;;;;;;;;19.39;68.50;100893.88;5085706;28;1098;-46
2021/05/24 02:11:03;;;;;;;;;;;;;;;19.37;68.30;100907.41;5067163;28;1769;-46
2021/05/24 02:13:30;;;;;;;;;;;;;;;19.39;68.65;100908.13;5084263;28;1415;-46
2021/05/24 02:15:56;;;;;;;;;;;;;;;19.37;68.36;100919.97;5060845;28;1827;-46
2021/05/24 02:18:22;;;;;;;;;;;;;;;19.40;68.13;100915.19;5063799;28;1489;-46
2021/05/24 02:20:48;;;;;;;;;;;;;;;19.36;68.55;100908.41;5063204;28;2240;-46
2021/05/24 02:23:14;;;;;;;;;;;;;;;19.39;68.72;100918.84;5063818;28;1479;-47
2021/05/24 02:25:40;;;;;;;;;;;;;;;19.38;68.93;100919.00;5064741;28;2042;-46
2021/05/24 02:28:07;;;;;;;;;;;;;;;19.39;68.21;100929.56;5081147;28;1071;-46
2021/05/24 02:30:34;;;;;;;;;;;;;;;19.39;68.72;100912.66;5087105;28;1565;-46
2021/05/24 02:33:01;;;;;;;;;;;;;;;19.39;68.71;100937.63;5083722;28;1597;-46
2021/05/24 02:35:27;;;;;;;;;;;;;;;19.40;68.40;100946.53;5078660;28;1666;-46
2021/05/24 02:37:53;;;;;;;;;;;;;;;19.41;68.39;100949.06;5065233;28;1612;-47
2021/05/24 02:40:21;;;;;;;;;;;;;;;19.39;68.77;100950.19;5063240;28;1591;-47
2021/05/24 02:42:47;;;;;;;;;;;;;;;19.38;69.23;100968.13;5064743;28;1913;-46
2021/05/24 02:45:14;;;;;;;;;;;;;;;19.38;68.93;100984.22;5056583;28;1805;-46
2021/05/24 02:47:41;;;;;;;;;;;;;;;19.38;68.17;100981.53;5064975;28;1487;-46
2021/05/24 02:50:09;;;;;;;;;;;;;;;19.36;68.63;100988.84;5067529;28;1621;-46
2021/05/24 02:52:35;;;;;;;;;;;;;;;19.38;68.41;101002.97;5082496;28;1627;-46
2021/05/24 02:55:01;;;;;;;;;;;;;;;19.42;68.25;101009.78;5081220;28;1170;-47
2021/05/24 02:57:27;;;;;;;;;;;;;;;19.39;68.26;100987.72;5064511;28;1412;-46
2021/05/24 02:59:53;;;;;;;;;;;;;;;19.38;68.66;100997.63;5054971;28;1766;-46
2021/05/24 03:02:25;;;;;;;;;;;;;;;19.39;68.13;101014.53;5062432;28;2041;-46
2021/05/24 03:04:52;;;;;;;;;;;;;;;19.41;68.19;101016.09;5063804;28;1842;-47
2021/05/24 03:07:18;;;;;;;;;;;;;;;19.40;68.48;101027.00;5062868;28;1014;-46
2021/05/24 03:09:44;;;;;;;;;;;;;;;19.41;68.82;101039.41;5061141;28;1746;-46
2021/05/24 03:12:10;;;;;;;;;;;;;;;19.41;68.56;101040.25;5067273;28;1662;-47
2021/05/24 03:14:36;;;;;;;;;;;;;;;19.40;68.90;101062.69;5055283;28;1511;-46
2021/05/24 03:17:02;;;;;;;;;;;;;;;19.40;68.40;101043.09;5062470;28;1586;-48
2021/05/24 03:19:28;;;;;;;;;;;;;;;19.39;68.42;101063.66;5065065;28;1691;-46
2021/05/24 03:21:55;;;;;;;;;;;;;;;19.36;68.53;101063.06;5064571;28;1906;-47
2021/05/24 03:24:21;;;;;;;;;;;;;;;19.39;68.74;101063.66;5063714;28;2266;-47
2021/05/24 03:26:47;;;;;;;;;;;;;;;19.39;68.51;101095.84;5062957;28;1614;-47
2021/05/24 03:29:13;;;;;;;;;;;;;;;19.39;68.20;101105.72;5057009;28;1007;-46
2021/05/24 03:31:39;;;;;;;;;;;;;;;19.41;68.24;101119.84;5064290;28;1696;-46
2021/05/24 03:34:05;;;;;;;;;;;;;;;19.43;68.23;101123.25;5064184;28;1978;-46
2021/05/24 03:36:31;;;;;;;;;;;;;;;19.41;68.05;101118.00;5062663;28;1730;-46
2021/05/24 03:38:58;;;;;;;;;;;;;;;19.43;68.03;101132.16;5061867;28;1427;-46
2021/05/24 03:41:24;;;;;;;;;;;;;;;19.39;68.97;101133.38;5061867;28;1910;-46
2021/05/24 03:43:50;;;;;;;;;;;;;;;19.45;68.58;101158.84;5059040;28;2073;-46
2021/05/24 03:46:16;;;;;;;;;;;;;;;19.46;68.20;101161.41;5058211;28;1721;-47
2021/05/24 03:48:42;;;;;;;;;;;;;;;19.48;68.84;101175.53;5065013;28;1677;-46
2021/05/24 03:51:09;;;;;;;;;;;;;;;19.51;68.20;101176.25;5061844;28;1632;-46
2021/05/24 03:53:35;;;;;;;;;;;;;;;19.51;68.06;101189.66;5060932;28;1620;-46
2021/05/24 03:56:02;;;;;;;;;;;;;;;19.54;67.99;101194.78;5062565;28;1471;-46
2021/05/24 03:58:28;;;;;;;;;;;;;;;19.52;68.45;101212.81;5062175;28;1069;-46
2021/05/24 04:00:54;;;;;;;;;;;;;;;19.52;68.09;101218.19;5059665;28;1981;-46
2021/05/24 04:03:21;;;;;;;;;;;;;;;19.53;67.91;101236.00;5061614;28;1548;-46
2021/05/24 04:05:49;;;;;;;;;;;;;;;19.57;67.90;101248.19;5064488;28;1598;-47
2021/05/24 04:08:15;;;;;;;;;;;;;;;19.56;68.23;101235.75;5060645;28;1598;-46
2021/05/24 04:10:48;;;;;;;;;;;;;;;19.62;67.65;101229.88;5060113;28;1902;-46
2021/05/24 04:13:14;;;;;;;;;;;;;;;19.61;67.75;101245.09;5061834;28;1098;-47
2021/05/24 04:15:44;;;;;;;;;;;;;;;19.63;67.89;101234.25;5057631;28;1734;-47
2021/05/24 04:18:14;;;;;;;;;;;;;;;19.63;68.28;101247.66;5061922;28;1622;-46
2021/05/24 04:20:40;;;;;;;;;;;;;;;19.66;67.92;101248.25;5059036;28;1623;-46
2021/05/24 04:23:06;;;;;;;;;;;;;;;19.68;68.15;101251.66;5063368;28;1515;-48
2021/05/24 04:25:32;;;;;;;;;;;;;;;19.68;67.66;101243.63;5063299;28;1520;-47
2021/05/24 04:27:58;;;;;;;;;;;;;;;19.71;67.50;101250.59;5061461;28;1085;-46
2021/05/24 04:30:25;;;;;;;;;;;;;;;19.77;67.23;101260.81;5054407;28;1904;-46
2021/05/24 04:32:51;;;;;;;;;;;;;;;19.78;67.71;101257.16;5055092;28;1646;-46
2021/05/24 04:35:18;;;;;;;;;;;;;;;19.80;67.31;101254.34;5063357;28;1931;-46
2021/05/24 04:37:44;;;;;;;;;;;;;;;19.78;67.86;101259.84;5062695;28;1607;-46
2021/05/24 04:40:10;;;;;;;;;;;;;;;19.76;67.46;101256.44;5061485;28;1587;-47
2021/05/24 04:42:36;;;;;;;;;;;;;;;19.76;67.76;101261.78;5063344;28;1902;-46
2021/05/24 04:45:03;;;;;;;;;;;;;;;19.77;67.06;101258.13;5054432;28;2086;-47
2021/05/24 04:47:30;;;;;;;;;;;;;;;19.74;67.94;101266.44;5063137;28;1847;-46
2021/05/24 04:49:56;;;;;;;;;;;;;;;19.75;67.10;101276.19;5061479;28;1995;-46
2021/05/24 04:52:22;;;;;;;;;;;;;;;19.71;67.91;101281.91;5063193;28;1156;-46
2021/05/24 04:54:48;;;;;;;;;;;;;;;19.75;67.80;101289.59;5065721;28;1552;-46
2021/05/24 04:57:14;;;;;;;;;;;;;;;19.73;67.65;101291.56;5060065;28;1588;-46
2021/05/24 04:59:40;;;;;;;;;;;;;;;19.79;67.34;101296.41;5070699;28;2011;-46
2021/05/24 05:02:06;;;;;;;;;;;;;;;19.78;67.17;101300.09;5068724;28;1980;-47
2021/05/24 05:04:33;;;;;;;;;;;;;;;19.76;67.42;101312.78;5051966;28;1015;-46
2021/05/24 05:06:59;;;;;;;;;;;;;;;19.75;68.01;101327.16;5055559;28;1786;-47
2021/05/24 05:09:25;;;;;;;;;;;;;;;19.71;67.85;101319.47;5060088;28;1774;-46
2021/05/24 05:11:53;;;;;;;;;;;;;;;19.73;68.10;101331.81;5060991;28;1790;-47
2021/05/24 05:14:20;;;;;;;;;;;;;;;19.74;67.74;101328.16;5054914;28;1693;-46
2021/05/24 05:16:46;;;;;;;;;;;;;;;19.72;67.75;101337.31;5063242;28;1623;-46
2021/05/24 05:19:16;;;;;;;;;;;;;;;19.70;67.73;101341.94;5058354;28;1817;-47
2021/05/24 05:21:43;;;;;;;;;;;;;;;19.70;67.55;101345.47;5061702;28;1931;-46
2021/05/24 05:24:09;;;;;;;;;;;;;;;19.70;67.85;101366.94;5060516;28;1520;-46
2021/05/24 05:26:35;;;;;;;;;;;;;;;19.70;67.23;101360.72;5061651;28;1607;-46
2021/05/24 05:29:01;;;;;;;;;;;;;;;19.70;67.75;101380.34;5072146;28;997;-46
2021/05/24 05:31:27;;;;;;;;;;;;;;;19.70;67.47;101388.41;5069851;28;1537;-46
2021/05/24 05:33:53;;;;;;;;;;;;;;;19.71;68.32;101399.97;5069534;28;1712;-46
2021/05/24 05:36:19;;;;;;;;;;;;;;;19.68;67.87;101380.47;5065305;28;1478;-47
2021/05/24 05:38:46;;;;;;;;;;;;;;;19.68;67.80;101379.63;5061570;28;1267;-46
2021/05/24 05:41:24;;;;;;;;;;;;;;;19.70;68.01;101379.50;5069847;28;2172;-46
2021/05/24 05:43:50;;;;;;;;;;;;;;;19.69;68.27;101402.78;5072397;28;1818;-45
2021/05/24 05:46:17;;;;;;;;;;;;;;;19.70;67.39;101401.81;5070555;28;2057;-46
2021/05/24 05:48:45;;;;;;;;;;;;;;;19.69;68.37;101389.34;5070894;28;1962;-46
2021/05/24 05:51:11;;;;;;;;;;;;;;;19.70;67.55;101404.50;5067641;28;1664;-46
2021/05/24 05:53:40;;;;;;;;;;;;;;;19.72;67.49;101402.56;5065196;28;1419;-46
2021/05/24 05:56:09;;;;;;;;;;;;;;;19.72;68.24;101413.31;5070087;28;1670;-46
2021/05/24 05:58:35;;;;;;;;;;;;;;;19.70;68.38;101415.22;5066705;28;1936;-46
2021/05/24 06:01:03;;;;;;;;;;;;;;;19.70;67.63;101412.53;5060163;28;1980;-46
2021/05/24 06:03:30;;;;;;;;;;;;;;;19.71;67.61;101416.94;5066400;28;1637;-46
2021/05/24 06:05:58;;;;;;;;;;;;;;;19.71;67.71;101421.44;5074131;28;1781;-46
2021/05/24 06:08:25;;;;;;;;;;;;;;;19.71;67.55;101426.81;5067745;28;1868;-47
2021/05/24 06:10:56;;;;;;;;;;;;;;;19.73;67.61;101431.09;5065164;28;1618;-46
2021/05/24 06:13:27;;;;;;;;;;;;;;;19.73;67.89;101425.72;5055482;28;1056;-46
2021/05/24 06:15:55;;;;;;;;;;;;;;;19.73;67.45;101425.72;5065688;28;1856;-46
2021/05/24 06:18:25;;;;;;;;;;;;;;;19.73;67.62;101432.94;5074036;28;1805;-46
2021/05/24 06:20:54;;;;;;;;;;;;;;;19.73;67.71;101439.16;5073297;28;1394;-46
2021/05/24 06:23:20;;;;;;;;;;;;;;;19.76;68.03;101433.53;5070172;28;1657;-46
2021/05/24 06:25:46;;;;;;;;;;;;;;;19.75;68.45;101430.97;5073658;28;1785;-46
2021/05/24 06:28:13;;;;;;;;;;;;;;;19.77;67.77;101426.34;5075098;28;1026;-47
2021/05/24 06:30:44;;;;;;;;;;;;;;;19.76;68.46;101438.06;5072897;28;1727;-46
2021/05/24 06:33:11;;;;;;;;;;;;;;;19.76;67.65;101436.22;5065657;28;1849;-46
2021/05/24 06:35:40;;;;;;;;;;;;;;;19.72;68.45;101440.13;5060066;28;1957;-46
2021/05/24 06:38:10;;;;;;;;;;;;;;;19.76;68.15;101448.81;5058787;28;1382;-46
2021/05/24 06:40:38;;;;;;;;;;;;;;;19.76;68.53;101446.13;5058168;28;2127;-46
2021/05/24 06:43:05;;;;;;;;;;;;;;;19.76;67.64;101446.97;5075062;28;1969;-46
2021/05/24 06:45:34;;;;;;;;;;;;;;;19.77;67.77;101455.84;5072765;28;1566;-46
2021/05/24 06:48:01;;;;;;;;;;;;;;;19.74;68.45;101465.03;5069367;28;1505;-47
2021/05/24 06:50:30;;;;;;;;;;;;;;;19.78;68.29;101471.84;5070986;28;1531;-47
2021/05/24 06:52:59;;;;;;;;;;;;;;;19.75;68.36;101471.22;5072210;28;1277;-46
2021/05/24 06:55:26;;;;;;;;;;;;;;;19.76;68.03;101473.78;5060311;28;1485;-46
2021/05/24 06:57:53;;;;;;;;;;;;;;;19.81;67.84;101482.31;5071324;28;1234;-46
2021/05/24 07:00:24;;;;;;;;;;;;;;;19.78;68.21;101482.56;5068769;28;1499;-46
2021/05/24 07:02:50;;;;;;;;;;;;;;;19.90;67.71;101485.25;5071907;28;1902;-46
2021/05/24 07:05:17;;;;;;;;;;;;;;;19.90;67.38;101486.09;5059316;28;1444;-46
2021/05/24 07:07:43;;;;;;;;;;;;;;;19.90;67.68;101504.06;5069348;28;1560;-46
2021/05/24 07:10:09;;;;;;;;;;;;;;;19.86;67.24;101493.53;5070882;28;1602;-47
2021/05/24 07:12:36;;;;;;;;;;;;;;;19.89;67.51;101505.00;5069244;28;1448;-47
2021/05/24 07:15:03;;;;;;;;;;;;;;;19.86;67.11;101490.88;5071957;28;1482;-46
2021/05/24 07:17:29;;;;;;;;;;;;;;;19.86;67.59;101498.06;5068298;28;1417;-46
2021/05/24 07:19:55;;;;;;;;;;;;;;;19.84;67.33;101482.09;5068373;28;1472;-46
2021/05/24 07:22:22;;;;;;;;;;;;;;;19.84;67.30;101489.28;5070003;28;1910;-46
2021/05/24 07:24:48;;;;;;;;;;;;;;;19.82;68.11;101489.41;5070842;28;1567;-46
2021/05/24 07:27:14;;;;;;;;;;;;;;;19.85;67.27;101502.56;5069579;28;1457;-47
2021/05/24 07:29:40;;;;;;;;;;;;;;;19.86;67.39;101516.84;5069592;28;1583;-47
2021/05/24 07:32:10;;;;;;;;;;;;;;;19.88;67.29;101508.69;5071104;28;1477;-46
2021/05/24 07:34:36;;;;;;;;;;;;;;;19.89;67.81;101524.66;5069983;28;1298;-46
2021/05/24 07:37:02;;;;;;;;;;;;;;;19.90;67.52;101525.53;5070037;28;1609;-46
2021/05/24 07:39:29;;;;;;;;;;;;;;;19.91;68.23;101544.16;5068485;28;1492;-46
2021/05/24 07:41:56;;;;;;;;;;;;;;;19.89;67.33;101537.22;5070886;28;1973;-46
2021/05/24 07:44:22;;;;;;;;;;;;;;;19.93;67.35;101544.91;5072684;28;1527;-47
2021/05/24 07:46:48;;;;;;;;;;;;;;;19.86;67.76;101527.59;5069759;28;1667;-47
2021/05/24 07:49:17;;;;;;;;;;;;;;;19.86;67.91;101536.50;5070473;28;1439;-46
2021/05/24 07:51:43;;;;;;;;;;;;;;;19.86;67.74;101528.44;5067881;28;1590;-46
2021/05/24 07:54:09;;;;;;;;;;;;;;;19.90;67.66;101537.09;5061818;28;1353;-46
2021/05/24 07:56:36;;;;;;;;;;;;;;;19.88;67.43;101516.75;5061902;28;1600;-45
2021/05/24 07:59:02;;;;;;;;;;;;;;;19.88;67.20;101524.78;5073023;28;1582;-46
2021/05/24 08:01:28;;;;;;;;;;;;;;;19.89;67.69;101521.13;5063723;28;1985;-47
2021/05/24 08:03:54;;;;;;;;;;;;;;;19.90;67.61;101522.84;5061597;28;2076;-47
2021/05/24 08:06:20;;;;;;;;;;;;;;;19.89;67.18;101510.38;5066239;28;1483;-47
2021/05/24 08:08:46;;;;;;;;;;;;;;;19.89;67.73;101529.16;5058184;28;1434;-46
2021/05/24 08:11:14;;;;;;;;;;;;;;;19.86;67.26;101530.28;5062459;28;1376;-46
2021/05/24 08:13:41;;;;;;;;;;;;;;;19.90;67.66;101541.63;5063984;28;1070;-47
2021/05/24 08:16:08;;;;;;;;;;;;;;;19.89;67.97;101532.69;5060970;28;1778;-47
2021/05/24 08:18:34;;;;;;;;;;;;;;;19.90;67.76;101538.94;5065431;28;2018;-46
2021/05/24 08:21:00;;;;;;;;;;;;;;;19.90;68.26;101528.22;5063873;28;1603;-47
2021/05/24 08:23:26;;;;;;;;;;;;;;;19.93;68.05;101533.31;5065715;28;1968;-46
2021/05/24 08:25:55;;;;;;;;;;;;;;;19.91;67.30;101513.78;5056693;28;1671;-46
2021/05/24 08:28:23;;;;;;;;;;;;;;;19.93;67.77;101526.09;5072935;28;1595;-46
2021/05/24 08:30:50;;;;;;;;;;;;;;;19.93;68.16;101519.91;5067510;28;1808;-47
2021/05/24 08:33:21;;;;;;;;;;;;;;;19.96;68.03;101517.81;5071357;28;1505;-46
2021/05/24 08:35:47;;;;;;;;;;;;;;;19.94;67.65;101524.31;5070983;28;1332;-46
2021/05/24 08:38:13;;;;;;;;;;;;;;;19.92;67.20;101510.16;5067897;28;1801;-46
2021/05/24 08:40:40;;;;;;;;;;;;;;;19.93;67.98;101506.47;5067414;28;1411;-46
2021/05/24 08:43:07;;;;;;;;;;;;;;;19.90;68.29;101512.09;5061016;28;1986;-46
2021/05/24 08:45:36;;;;;;;;;;;;;;;19.91;68.11;101514.63;5055066;28;1491;-46
2021/05/24 08:48:03;;;;;;;;;;;;;;;19.93;67.51;101510.00;5061776;28;1599;-46
2021/05/24 08:50:29;;;;;;;;;;;;;;;19.94;68.05;101502.81;5066938;28;1474;-46
2021/05/24 08:52:55;;;;;;;;;;;;;;;19.95;67.25;101493.78;5062965;28;1600;-47
2021/05/24 08:55:21;;;;;;;;;;;;;;;19.97;67.23;101502.56;5065439;28;1786;-46
2021/05/24 08:57:47;;;;;;;;;;;;;;;19.92;67.11;101494.88;5062244;28;1147;-46
2021/05/24 09:00:14;;;;;;;;;;;;;;;19.96;67.13;101503.56;5055978;28;1479;-46
2021/05/24 09:02:41;;;;;;;;;;;;;;;19.92;67.67;101499.41;5067187;28;1910;-46
2021/05/24 09:05:09;;;;;;;;;;;;;;;19.96;67.71;101508.94;5058996;28;1284;-47
2021/05/24 09:07:46;;;;;;;;;;;;;;;19.91;67.21;101500.38;5065349;28;1276;-46
2021/05/24 09:10:12;;;;;;;;;;;;;;;19.87;67.42;101497.06;5065905;28;1411;-47
2021/05/24 09:12:38;;;;;;;;;;;;;;;19.88;67.26;101509.53;5068331;28;1099;-46
2021/05/24 09:15:08;;;;;;;;;;;;;;;19.90;67.60;101496.84;5058081;28;1493;-46
2021/05/24 09:17:44;;;;;;;;;;;;;;;19.89;67.32;101494.28;5060630;28;1790;-46
2021/05/24 09:20:15;;;;;;;;;;;;;;;19.91;68.08;101489.63;5066343;28;1249;-46
2021/05/24 09:22:41;;;;;;;;;;;;;;;19.88;67.98;101497.94;5056396;28;1906;-47
2021/05/24 09:25:08;;;;;;;;;;;;;;;19.89;67.92;101499.66;5062102;28;1631;-47
2021/05/24 09:27:37;;;;;;;;;;;;;;;19.86;67.19;101490.88;5059437;28;1107;-46
2021/05/24 09:30:04;;;;;;;;;;;;;;;19.84;67.13;101492.81;5067794;28;1586;-46
2021/05/24 09:32:31;;;;;;;;;;;;;;;19.85;67.98;101496.34;5061941;28;1428;-46
2021/05/24 09:35:00;;;;;;;;;;;;;;;19.84;67.33;101495.50;5060852;28;1615;-46
2021/05/24 09:37:30;;;;;;;;;;;;;;;19.85;67.20;101493.66;5052631;28;1564;-47
2021/05/24 09:39:56;;;;;;;;;;;;;;;19.84;68.20;101487.44;5064489;28;1086;-46
2021/05/24 09:42:22;;;;;;;;;;;;;;;19.84;67.35;101486.59;5067080;28;1906;-46
2021/05/24 09:44:50;;;;;;;;;;;;;;;19.84;67.36;101498.19;5056911;28;1455;-46
2021/05/24 09:47:31;;;;;;;;;;;;;;;19.88;67.23;101498.81;5064343;28;1439;-47
2021/05/24 09:50:06;;;;;;;;;;;;;;;19.86;67.42;101506.97;5064071;28;1614;-47
2021/05/24 09:52:35;;;;;;;;;;;;;;;19.85;67.48;101505.25;5055061;28;1427;-46
2021/05/24 09:55:12;;;;;;;;;;;;;;;19.85;67.51;101505.25;5065931;28;1167;-46
2021/05/24 09:57:49;;;;;;;;;;;;;;;19.83;68.25;101509.88;5066168;28;1255;-46
2021/05/24 10:00:17;;;;;;;;;;;;;;;19.86;67.61;101509.66;5057608;28;1675;-47
2021/05/24 10:02:44;;;;;;;;;;;;;;;19.83;67.86;101514.41;5065902;28;1910;-46
2021/05/24 10:05:11;;;;;;;;;;;;;;;19.85;68.19;101496.34;5065679;28;1753;-46
2021/05/24 10:07:37;;;;;;;;;;;;;;;19.85;67.72;101502.56;5064428;28;1678;-46
2021/05/24 10:10:04;;;;;;;;;;;;;;;19.86;67.56;101496.22;5063869;28;1685;-47
2021/05/24 10:12:30;;;;;;;;;;;;;;;19.88;68.14;101489.91;5065564;28;1572;-47
2021/05/24 10:14:59;;;;;;;;;;;;;;;19.86;68.00;101484.66;5056747;28;1567;-47
2021/05/24 10:17:25;;;;;;;;;;;;;;;19.89;67.22;101468.28;5065076;28;1608;-46
2021/05/24 10:19:51;;;;;;;;;;;;;;;19.88;67.63;101480.00;5065047;28;1308;-47
2021/05/24 10:22:17;;;;;;;;;;;;;;;19.85;67.43;101470.34;5058354;28;1991;-47
2021/05/24 10:24:44;;;;;;;;;;;;;;;19.88;67.62;101482.69;5067674;28;1761;-46
2021/05/24 10:27:10;;;;;;;;;;;;;;;19.84;68.46;101481.25;5062956;28;1868;-46
2021/05/24 10:29:37;;;;;;;;;;;;;;;19.86;67.50;101476.59;5054528;28;1657;-47
2021/05/24 10:32:03;;;;;;;;;;;;;;;19.86;68.15;101480.13;5062935;28;1639;-47
2021/05/24 10:34:36;;;;;;;;;;;;;;;19.88;68.40;101473.78;5065177;28;1281;-47
2021/05/24 10:37:06;;;;;;;;;;;;;;;19.85;67.51;101461.47;5061097;28;1798;-46
2021/05/24 10:39:43;;;;;;;;;;;;;;;19.89;67.59;101470.13;5067276;28;1688;-47
2021/05/24 10:42:13;;;;;;;;;;;;;;;19.85;67.34;101467.66;5057543;28;1930;-46
2021/05/24 10:44:40;;;;;;;;;;;;;;;19.85;67.58;101461.47;5054318;28;1750;-47
2021/05/24 10:47:16;;;;;;;;;;;;;;;19.85;67.34;101459.63;5064774;28;1502;-47
2021/05/24 10:49:53;;;;;;;;;;;;;;;19.88;68.39;101468.44;5064682;28;1078;-46
2021/05/24 10:52:19;;;;;;;;;;;;;;;19.85;68.14;101462.31;5054127;28;1018;-46
2021/05/24 10:54:44;;;;;;;;;;;;;;;19.85;67.34;101456.09;5060224;28;1662;-47
2021/05/24 10:57:13;;;;;;;;;;;;;;;19.85;67.57;101456.09;5064805;28;1582;-47
2021/05/24 10:59:53;;;;;;;;;;;;;;;19.84;67.63;101444.50;5054185;28;1762;-47
2021/05/24 11:02:26;;;;;;;;;;;;;;;19.86;67.80;101441.72;5062849;28;1930;-46
2021/05/24 11:07:51;;;;;;;;;;;;;;;19.88;67.56;101446.97;5072358;28;2651;-46
2021/05/24 11:10:31;;;;;;;;;;;;;;;19.92;67.37;101449.25;5063890;28;2058;-46
2021/05/24 11:13:17;;;;;;;;;;;;;;;19.90;68.05;101451.22;5059771;28;1266;-46
2021/05/24 11:15:58;;;;;;;;;;;;;;;19.90;68.09;101453.06;5058801;28;1239;-45
2021/05/24 11:18:27;;;;;;;;;;;;;;;19.90;67.64;101448.53;5060072;28;1569;-46
2021/05/24 11:21:15;;;;;;;;;;;;;;;19.86;67.51;101445.22;5066522;28;1249;-46
2021/05/24 11:23:49;;;;;;;;;;;;;;;19.91;68.11;101444.00;5067893;28;1969;-47
2021/05/24 11:26:16;;;;;;;;;;;;;;;19.89;67.38;101452.19;5061739;28;1503;-46
2021/05/24 11:28:43;;;;;;;;;;;;;;;19.91;67.57;101452.06;5066558;28;1072;-46
2021/05/24 11:31:10;;;;;;;;;;;;;;;19.92;68.15;101448.41;5066984;28;1852;-46
2021/05/24 11:33:41;;;;;;;;;;;;;;;19.90;67.59;101448.53;5061938;28;2167;-46
2021/05/24 11:36:07;;;;;;;;;;;;;;;19.88;68.02;101439.75;5062940;28;1611;-46
2021/05/24 11:38:34;;;;;;;;;;;;;;;19.91;68.07;101439.47;5065199;28;1855;-46
2021/05/24 11:41:13;;;;;;;;;;;;;;;19.90;68.07;101436.94;5059761;28;1617;-46
2021/05/24 11:43:41;;;;;;;;;;;;;;;19.90;67.47;101436.94;5065365;28;1977;-46
2021/05/24 11:46:08;;;;;;;;;;;;;;;19.90;67.42;101448.53;5064652;28;1773;-47
2021/05/24 11:48:36;;;;;;;;;;;;;;;19.90;67.16;101447.69;5062537;28;1772;-46
2021/05/24 11:51:04;;;;;;;;;;;;;;;19.89;68.09;101435.22;5062326;28;1836;-46
2021/05/24 11:53:33;;;;;;;;;;;;;;;19.92;68.35;101453.78;5062145;28;1822;-47
2021/05/24 11:56:06;;;;;;;;;;;;;;;19.89;68.13;101446.81;5061245;28;1695;-47
2021/05/24 11:58:32;;;;;;;;;;;;;;;19.89;67.51;101441.44;5053179;28;1082;-46
2021/05/24 12:01:02;;;;;;;;;;;;;;;19.91;68.23;101435.94;5058237;28;1914;-46
2021/05/24 12:03:28;;;;;;;;;;;;;;;19.89;67.60;101437.91;5061548;28;1906;-47
2021/05/24 12:05:56;;;;;;;;;;;;;;;19.93;68.08;101455.47;5061683;28;1424;-47
2021/05/24 12:08:23;;;;;;;;;;;;;;;19.90;67.42;101436.94;5064465;28;1794;-46
2021/05/24 12:10:58;;;;;;;;;;;;;;;19.93;67.33;101434.00;5061317;28;1793;-46
2021/05/24 12:13:24;;;;;;;;;;;;;;;19.92;67.80;101435.00;5064034;28;1093;-47
2021/05/24 12:15:50;;;;;;;;;;;;;;;19.92;67.72;101435.00;5065647;28;1738;-47
2021/05/24 12:18:16;;;;;;;;;;;;;;;19.90;67.58;101437.78;5060035;28;1611;-46
2021/05/24 12:20:42;;;;;;;;;;;;;;;19.94;67.22;101441.09;5062212;28;1739;-46
2021/05/24 12:23:08;;;;;;;;;;;;;;;19.89;67.08;101424.50;5063785;28;1904;-47
2021/05/24 12:25:35;;;;;;;;;;;;;;;19.93;67.81;101437.53;5064510;28;1592;-46
2021/05/24 12:28:04;;;;;;;;;;;;;;;19.96;67.05;101457.91;5051657;28;1115;-46
2021/05/24 12:30:36;;;;;;;;;;;;;;;19.94;67.59;101438.41;5055152;28;1637;-47
2021/05/24 12:33:04;;;;;;;;;;;;;;;19.95;67.56;101448.16;5064328;28;1455;-46
2021/05/24 12:35:33;;;;;;;;;;;;;;;19.96;67.17;101436.44;5065044;28;1530;-46
2021/05/24 12:38:06;;;;;;;;;;;;;;;19.94;67.00;101433.03;5061015;28;1781;-47
2021/05/24 12:40:33;;;;;;;;;;;;;;;19.94;67.93;101439.25;5063173;28;1778;-46
2021/05/24 12:42:59;;;;;;;;;;;;;;;19.96;67.37;101418.50;5061107;28;1906;-47
2021/05/24 12:45:27;;;;;;;;;;;;;;;19.94;67.97;101424.97;5059096;28;1487;-46
2021/05/24 12:47:58;;;;;;;;;;;;;;;19.95;68.00;101440.09;5058572;28;1549;-47
2021/05/24 12:50:24;;;;;;;;;;;;;;;19.94;67.71;101433.03;5066745;28;1229;-46
2021/05/24 12:52:50;;;;;;;;;;;;;;;19.94;67.48;101419.59;5065796;28;1356;-46
2021/05/24 12:55:16;;;;;;;;;;;;;;;19.93;67.51;101413.38;5068825;28;1460;-46